sensor_id;sensor_type;location;lat;lon;timestamp;noise_LAeq;noise_LA_min;noise_LA_max;noise_LA01;noise_LA95
41518;Laerm;27249;48.094;-1.690;2023-05-07T00:01:28;48.62;41.68;58.63;;
41518;Laerm;27249;48.094;-1.690;2023-05-07T00:03:54;49.75;41.75;72.47;;
41518;Laerm;27249;48.094;-1.690;2023-05-07T00:06:19;49.35;41.89;61.48;;
41518;Laerm;27249;48.094;-1.690;2023-05-07T00:08:45;49.94;41.53;62.50;;
41518;Laerm;27249;48.094;-1.690;2023-05-07T00:11:10;48.97;41.06;60.96;;
41518;Laerm;27249;48.094;-1.690;2023-05-07T00:13:35;50.17;41.61;63.97;;
41518;Laerm;27249;48.094;-1.690;2023-05-07T00:16:03;46.45;40.80;56.38;;
41518;Laerm;27249;48.094;-1.690;2023-05-07T00:18:29;50.14;42.71;58.96;;
41518;Laerm;27249;48.094;-1.690;2023-05-07T00:20:54;50.53;41.96;64.32;;
41518;Laerm;27249;48.094;-1.690;2023-05-07T00:23:20;49.20;42.47;66.34;;
41518;Laerm;27249;48.094;-1.690;2023-05-07T00:25:45;50.30;42.16;60.80;;
41518;Laerm;27249;48.094;-1.690;2023-05-07T00:28:10;53.22;42.16;65.30;;
41518;Laerm;27249;48.094;-1.690;2023-05-07T00:30:35;46.91;41.96;60.47;;
41518;Laerm;27249;48.094;-1.690;2023-05-07T00:33:01;51.53;42.09;61.10;;
41518;Laerm;27249;48.094;-1.690;2023-05-07T00:35:26;50.58;42.47;63.82;;
41518;Laerm;27249;48.094;-1.690;2023-05-07T00:37:51;52.44;42.76;62.65;;
41518;Laerm;27249;48.094;-1.690;2023-05-07T00:40:16;48.12;42.59;58.88;;
41518;Laerm;27249;48.094;-1.690;2023-05-07T00:42:42;50.07;43.24;63.35;;
41518;Laerm;27249;48.094;-1.690;2023-05-07T00:45:12;50.32;42.36;59.19;;
41518;Laerm;27249;48.094;-1.690;2023-05-07T00:47:40;47.15;42.22;57.58;;
41518;Laerm;27249;48.094;-1.690;2023-05-07T00:50:05;50.16;42.41;59.62;;
41518;Laerm;27249;48.094;-1.690;2023-05-07T00:52:31;50.13;42.35;61.43;;
41518;Laerm;27249;48.094;-1.690;2023-05-07T00:54:56;51.45;41.82;66.63;;
41518;Laerm;27249;48.094;-1.690;2023-05-07T00:57:21;46.71;41.96;59.21;;
41518;Laerm;27249;48.094;-1.690;2023-05-07T00:59:49;47.07;41.46;58.31;;
41518;Laerm;27249;48.094;-1.690;2023-05-07T01:02:15;48.27;41.06;59.00;;
41518;Laerm;27249;48.094;-1.690;2023-05-07T01:04:41;43.89;41.41;52.26;;
41518;Laerm;27249;48.094;-1.690;2023-05-07T01:07:06;49.93;41.46;63.98;;
41518;Laerm;27249;48.094;-1.690;2023-05-07T01:09:32;54.03;41.61;64.38;;
41518;Laerm;27249;48.094;-1.690;2023-05-07T01:12:00;49.93;41.22;63.73;;
41518;Laerm;27249;48.094;-1.690;2023-05-07T01:14:25;49.06;41.38;59.80;;
41518;Laerm;27249;48.094;-1.690;2023-05-07T01:16:50;51.61;41.46;61.37;;
41518;Laerm;27249;48.094;-1.690;2023-05-07T01:19:17;50.73;42.53;61.80;;
41518;Laerm;27249;48.094;-1.690;2023-05-07T01:21:46;46.18;41.46;57.66;;
41518;Laerm;27249;48.094;-1.690;2023-05-07T01:24:12;49.27;41.68;60.18;;
41518;Laerm;27249;48.094;-1.690;2023-05-07T01:26:38;52.13;41.38;67.52;;
41518;Laerm;27249;48.094;-1.690;2023-05-07T01:29:04;49.29;41.30;62.10;;
41518;Laerm;27249;48.094;-1.690;2023-05-07T01:31:29;52.08;42.03;64.51;;
41518;Laerm;27249;48.094;-1.690;2023-05-07T01:33:54;49.02;41.96;60.17;;
41518;Laerm;27249;48.094;-1.690;2023-05-07T01:36:21;44.55;40.89;57.36;;
41518;Laerm;27249;48.094;-1.690;2023-05-07T01:38:48;50.53;41.61;66.53;;
41518;Laerm;27249;48.094;-1.690;2023-05-07T01:41:15;47.92;40.33;59.81;;
41518;Laerm;27249;48.094;-1.690;2023-05-07T01:43:40;46.61;41.53;60.41;;
41518;Laerm;27249;48.094;-1.690;2023-05-07T01:46:06;49.30;41.89;62.04;;
41518;Laerm;27249;48.094;-1.690;2023-05-07T01:48:32;49.39;41.53;63.11;;
41518;Laerm;27249;48.094;-1.690;2023-05-07T01:50:57;50.35;41.38;63.57;;
41518;Laerm;27249;48.094;-1.690;2023-05-07T01:53:23;54.15;42.22;67.93;;
41518;Laerm;27249;48.094;-1.690;2023-05-07T01:55:48;49.31;41.14;60.26;;
41518;Laerm;27249;48.094;-1.690;2023-05-07T01:58:14;47.92;41.75;61.89;;
41518;Laerm;27249;48.094;-1.690;2023-05-07T02:00:40;53.25;41.82;65.77;;
41518;Laerm;27249;48.094;-1.690;2023-05-07T02:03:05;46.04;41.46;56.42;;
41518;Laerm;27249;48.094;-1.690;2023-05-07T02:05:31;50.27;42.41;60.76;;
41518;Laerm;27249;48.094;-1.690;2023-05-07T02:07:56;55.34;41.89;71.05;;
41518;Laerm;27249;48.094;-1.690;2023-05-07T02:10:21;48.82;41.61;62.38;;
41518;Laerm;27249;48.094;-1.690;2023-05-07T02:12:46;47.78;41.82;58.88;;
41518;Laerm;27249;48.094;-1.690;2023-05-07T02:15:11;54.69;42.88;66.84;;
41518;Laerm;27249;48.094;-1.690;2023-05-07T02:17:39;50.99;41.61;60.78;;
41518;Laerm;27249;48.094;-1.690;2023-05-07T02:20:23;49.39;41.30;60.56;;
41518;Laerm;27249;48.094;-1.690;2023-05-07T02:22:49;48.08;40.89;62.87;;
41518;Laerm;27249;48.094;-1.690;2023-05-07T02:25:14;43.95;41.53;51.78;;
41518;Laerm;27249;48.094;-1.690;2023-05-07T02:27:39;50.06;41.89;62.09;;
41518;Laerm;27249;48.094;-1.690;2023-05-07T02:30:05;47.32;41.22;59.58;;
41518;Laerm;27249;48.094;-1.690;2023-05-07T02:32:30;48.62;41.89;61.12;;
41518;Laerm;27249;48.094;-1.690;2023-05-07T02:34:55;51.41;41.61;64.98;;
41518;Laerm;27249;48.094;-1.690;2023-05-07T02:37:21;50.71;41.06;62.78;;
41518;Laerm;27249;48.094;-1.690;2023-05-07T02:39:46;48.67;41.68;61.21;;
41518;Laerm;27249;48.094;-1.690;2023-05-07T02:42:11;47.50;40.89;57.85;;
41518;Laerm;27249;48.094;-1.690;2023-05-07T02:44:36;44.25;41.30;54.33;;
41518;Laerm;27249;48.094;-1.690;2023-05-07T02:47:02;47.75;41.53;59.63;;
41518;Laerm;27249;48.094;-1.690;2023-05-07T02:49:27;47.99;42.09;58.87;;
41518;Laerm;27249;48.094;-1.690;2023-05-07T02:51:52;48.38;41.46;57.73;;
41518;Laerm;27249;48.094;-1.690;2023-05-07T02:54:17;48.43;42.03;62.93;;
41518;Laerm;27249;48.094;-1.690;2023-05-07T02:56:43;47.39;41.89;60.83;;
41518;Laerm;27249;48.094;-1.690;2023-05-07T02:59:08;43.72;41.68;48.21;;
41518;Laerm;27249;48.094;-1.690;2023-05-07T03:01:33;45.47;41.89;54.40;;
41518;Laerm;27249;48.094;-1.690;2023-05-07T03:03:58;49.44;41.41;61.05;;
41518;Laerm;27249;48.094;-1.690;2023-05-07T03:06:23;45.72;41.14;54.63;;
41518;Laerm;27249;48.094;-1.690;2023-05-07T03:08:49;48.79;40.98;64.34;;
41518;Laerm;27249;48.094;-1.690;2023-05-07T03:11:14;47.61;41.61;59.11;;
41518;Laerm;27249;48.094;-1.690;2023-05-07T03:13:40;45.50;41.46;58.64;;
41518;Laerm;27249;48.094;-1.690;2023-05-07T03:16:05;48.31;41.38;59.25;;
41518;Laerm;27249;48.094;-1.690;2023-05-07T03:18:30;50.29;41.96;61.82;;
41518;Laerm;27249;48.094;-1.690;2023-05-07T03:20:55;50.41;41.96;62.72;;
41518;Laerm;27249;48.094;-1.690;2023-05-07T03:23:21;49.09;42.03;61.78;;
41518;Laerm;27249;48.094;-1.690;2023-05-07T03:25:46;46.05;41.75;54.69;;
41518;Laerm;27249;48.094;-1.690;2023-05-07T03:28:11;45.14;41.46;54.51;;
41518;Laerm;27249;48.094;-1.690;2023-05-07T03:30:36;50.03;41.61;60.66;;
41518;Laerm;27249;48.094;-1.690;2023-05-07T03:33:01;45.05;41.68;60.82;;
41518;Laerm;27249;48.094;-1.690;2023-05-07T03:35:27;53.14;42.22;66.06;;
41518;Laerm;27249;48.094;-1.690;2023-05-07T03:37:52;47.68;41.68;60.61;;
41518;Laerm;27249;48.094;-1.690;2023-05-07T03:40:17;50.64;41.89;63.06;;
41518;Laerm;27249;48.094;-1.690;2023-05-07T03:42:42;50.04;41.61;59.85;;
41518;Laerm;27249;48.094;-1.690;2023-05-07T03:45:08;49.72;41.96;60.98;;
41518;Laerm;27249;48.094;-1.690;2023-05-07T03:47:33;46.67;41.38;57.71;;
41518;Laerm;27249;48.094;-1.690;2023-05-07T03:49:58;46.12;42.22;59.65;;
41518;Laerm;27249;48.094;-1.690;2023-05-07T03:52:24;48.63;41.75;61.90;;
41518;Laerm;27249;48.094;-1.690;2023-05-07T03:54:51;51.63;41.89;63.51;;
41518;Laerm;27249;48.094;-1.690;2023-05-07T03:57:16;49.12;41.75;63.32;;
41518;Laerm;27249;48.094;-1.690;2023-05-07T03:59:41;53.88;42.59;65.45;;
41518;Laerm;27249;48.094;-1.690;2023-05-07T04:02:06;49.68;42.35;63.58;;
41518;Laerm;27249;48.094;-1.690;2023-05-07T04:04:32;51.75;42.47;63.96;;
41518;Laerm;27249;48.094;-1.690;2023-05-07T04:06:58;50.68;42.59;64.34;;
41518;Laerm;27249;48.094;-1.690;2023-05-07T04:09:24;52.68;42.53;64.64;;
41518;Laerm;27249;48.094;-1.690;2023-05-07T04:11:50;51.37;42.93;61.98;;
41518;Laerm;27249;48.094;-1.690;2023-05-07T04:14:15;51.07;42.88;62.13;;
41518;Laerm;27249;48.094;-1.690;2023-05-07T04:16:40;51.89;43.19;61.95;;
41518;Laerm;27249;48.094;-1.690;2023-05-07T04:19:05;51.02;42.98;63.50;;
41518;Laerm;27249;48.094;-1.690;2023-05-07T04:21:32;50.00;42.82;61.00;;
41518;Laerm;27249;48.094;-1.690;2023-05-07T04:23:57;50.31;43.86;59.12;;
41518;Laerm;27249;48.094;-1.690;2023-05-07T04:26:23;57.36;45.20;71.74;;
41518;Laerm;27249;48.094;-1.690;2023-05-07T04:28:49;58.15;48.13;68.83;;
41518;Laerm;27249;48.094;-1.690;2023-05-07T04:31:14;54.85;43.72;66.01;;
41518;Laerm;27249;48.094;-1.690;2023-05-07T04:33:40;54.34;43.81;66.38;;
41518;Laerm;27249;48.094;-1.690;2023-05-07T04:36:05;54.24;44.03;64.83;;
41518;Laerm;27249;48.094;-1.690;2023-05-07T04:38:30;52.79;43.63;66.13;;
41518;Laerm;27249;48.094;-1.690;2023-05-07T04:40:56;53.58;43.39;66.04;;
41518;Laerm;27249;48.094;-1.690;2023-05-07T04:43:22;53.30;43.54;67.14;;
41518;Laerm;27249;48.094;-1.690;2023-05-07T04:45:47;51.04;42.93;67.54;;
41518;Laerm;27249;48.094;-1.690;2023-05-07T04:48:14;52.04;42.65;63.90;;
41518;Laerm;27249;48.094;-1.690;2023-05-07T04:50:41;50.04;43.09;65.50;;
41518;Laerm;27249;48.094;-1.690;2023-05-07T04:53:06;45.34;42.59;62.32;;
41518;Laerm;27249;48.094;-1.690;2023-05-07T04:55:31;50.75;42.35;60.94;;
41518;Laerm;27249;48.094;-1.690;2023-05-07T04:57:56;50.03;41.82;61.96;;
41518;Laerm;27249;48.094;-1.690;2023-05-07T05:00:22;53.64;42.65;64.06;;
41518;Laerm;27249;48.094;-1.690;2023-05-07T05:02:47;54.27;42.35;64.60;;
41518;Laerm;27249;48.094;-1.690;2023-05-07T05:05:13;54.40;43.24;66.42;;
41518;Laerm;27249;48.094;-1.690;2023-05-07T05:07:38;52.98;43.24;63.81;;
41518;Laerm;27249;48.094;-1.690;2023-05-07T05:10:04;53.77;43.63;63.40;;
41518;Laerm;27249;48.094;-1.690;2023-05-07T05:12:30;51.39;43.44;62.52;;
41518;Laerm;27249;48.094;-1.690;2023-05-07T05:14:56;55.12;43.72;65.62;;
41518;Laerm;27249;48.094;-1.690;2023-05-07T05:17:21;52.49;42.76;62.84;;
41518;Laerm;27249;48.094;-1.690;2023-05-07T05:19:46;50.10;42.35;61.48;;
41518;Laerm;27249;48.094;-1.690;2023-05-07T05:22:11;50.57;43.14;59.06;;
41518;Laerm;27249;48.094;-1.690;2023-05-07T05:24:36;53.60;43.58;63.71;;
41518;Laerm;27249;48.094;-1.690;2023-05-07T05:27:02;54.15;43.94;63.29;;
41518;Laerm;27249;48.094;-1.690;2023-05-07T05:29:27;49.82;42.71;59.28;;
41518;Laerm;27249;48.094;-1.690;2023-05-07T05:31:52;49.66;42.65;59.21;;
41518;Laerm;27249;48.094;-1.690;2023-05-07T05:34:18;52.39;42.93;61.81;;
41518;Laerm;27249;48.094;-1.690;2023-05-07T05:36:44;54.52;43.09;63.00;;
41518;Laerm;27249;48.094;-1.690;2023-05-07T05:39:10;51.27;42.98;61.77;;
41518;Laerm;27249;48.094;-1.690;2023-05-07T05:41:35;51.13;43.24;62.06;;
41518;Laerm;27249;48.094;-1.690;2023-05-07T05:44:00;52.65;42.82;61.61;;
41518;Laerm;27249;48.094;-1.690;2023-05-07T05:46:25;51.52;43.14;59.97;;
41518;Laerm;27249;48.094;-1.690;2023-05-07T05:48:50;49.57;43.09;64.74;;
41518;Laerm;27249;48.094;-1.690;2023-05-07T05:51:16;53.78;43.19;63.32;;
41518;Laerm;27249;48.094;-1.690;2023-05-07T05:53:41;50.34;42.98;62.19;;
41518;Laerm;27249;48.094;-1.690;2023-05-07T05:56:06;53.39;42.88;63.81;;
41518;Laerm;27249;48.094;-1.690;2023-05-07T05:58:31;50.41;43.19;60.87;;
41518;Laerm;27249;48.094;-1.690;2023-05-07T06:00:57;55.23;42.53;66.62;;
41518;Laerm;27249;48.094;-1.690;2023-05-07T06:03:23;51.42;43.54;61.64;;
41518;Laerm;27249;48.094;-1.690;2023-05-07T06:05:48;53.28;43.90;60.24;;
41518;Laerm;27249;48.094;-1.690;2023-05-07T06:08:13;54.88;43.99;63.29;;
41518;Laerm;27249;48.094;-1.690;2023-05-07T06:10:38;51.98;43.54;61.61;;
41518;Laerm;27249;48.094;-1.690;2023-05-07T06:13:04;51.11;41.06;61.10;;
41518;Laerm;27249;48.094;-1.690;2023-05-07T06:15:29;54.54;42.93;61.77;;
41518;Laerm;27249;48.094;-1.690;2023-05-07T06:17:54;50.28;42.76;67.89;;
41518;Laerm;27249;48.094;-1.690;2023-05-07T06:20:22;50.55;42.59;59.43;;
41518;Laerm;27249;48.094;-1.690;2023-05-07T06:22:47;50.91;42.53;59.95;;
41518;Laerm;27249;48.094;-1.690;2023-05-07T06:25:12;50.27;43.29;59.42;;
41518;Laerm;27249;48.094;-1.690;2023-05-07T06:27:37;54.74;43.49;63.67;;
41518;Laerm;27249;48.094;-1.690;2023-05-07T06:30:04;51.13;42.41;59.72;;
41518;Laerm;27249;48.094;-1.690;2023-05-07T06:32:30;52.09;42.98;61.87;;
41518;Laerm;27249;48.094;-1.690;2023-05-07T06:34:55;50.64;42.59;61.94;;
41518;Laerm;27249;48.094;-1.690;2023-05-07T06:37:20;51.77;43.04;60.86;;
41518;Laerm;27249;48.094;-1.690;2023-05-07T06:39:46;52.77;44.15;63.19;;
41518;Laerm;27249;48.094;-1.690;2023-05-07T06:42:11;51.44;42.65;58.93;;
41518;Laerm;27249;48.094;-1.690;2023-05-07T06:44:36;51.29;42.88;62.82;;
41518;Laerm;27249;48.094;-1.690;2023-05-07T06:47:01;51.99;43.04;58.49;;
41518;Laerm;27249;48.094;-1.690;2023-05-07T06:49:26;49.40;42.82;59.13;;
41518;Laerm;27249;48.094;-1.690;2023-05-07T06:51:52;51.18;42.29;59.19;;
41518;Laerm;27249;48.094;-1.690;2023-05-07T06:54:17;53.64;44.95;60.84;;
41518;Laerm;27249;48.094;-1.690;2023-05-07T06:56:43;54.41;43.14;64.16;;
41518;Laerm;27249;48.094;-1.690;2023-05-07T06:59:08;53.72;44.19;74.29;;
41518;Laerm;27249;48.094;-1.690;2023-05-07T07:01:33;52.70;42.88;65.16;;
41518;Laerm;27249;48.094;-1.690;2023-05-07T07:03:58;53.15;43.86;63.10;;
41518;Laerm;27249;48.094;-1.690;2023-05-07T07:06:24;54.56;43.34;63.44;;
41518;Laerm;27249;48.094;-1.690;2023-05-07T07:08:50;50.44;42.16;59.61;;
41518;Laerm;27249;48.094;-1.690;2023-05-07T07:11:16;50.65;41.82;61.74;;
41518;Laerm;27249;48.094;-1.690;2023-05-07T07:13:41;48.35;42.71;59.16;;
41518;Laerm;27249;48.094;-1.690;2023-05-07T07:16:07;50.22;43.14;58.61;;
41518;Laerm;27249;48.094;-1.690;2023-05-07T07:18:33;52.13;43.44;60.62;;
41518;Laerm;27249;48.094;-1.690;2023-05-07T07:20:58;54.26;45.75;60.76;;
41518;Laerm;27249;48.094;-1.690;2023-05-07T07:23:24;51.61;42.65;60.64;;
41518;Laerm;27249;48.094;-1.690;2023-05-07T07:25:49;52.96;42.65;61.78;;
41518;Laerm;27249;48.094;-1.690;2023-05-07T07:28:14;54.57;44.07;64.03;;
41518;Laerm;27249;48.094;-1.690;2023-05-07T07:30:39;52.38;42.29;63.41;;
41518;Laerm;27249;48.094;-1.690;2023-05-07T07:33:05;54.40;44.19;61.28;;
41518;Laerm;27249;48.094;-1.690;2023-05-07T07:35:31;53.99;44.94;62.26;;
41518;Laerm;27249;48.094;-1.690;2023-05-07T07:37:56;56.81;47.77;65.64;;
41518;Laerm;27249;48.094;-1.690;2023-05-07T07:40:21;55.48;44.11;63.61;;
41518;Laerm;27249;48.094;-1.690;2023-05-07T07:42:47;55.49;45.83;62.05;;
41518;Laerm;27249;48.094;-1.690;2023-05-07T07:45:12;58.52;51.21;77.55;;
41518;Laerm;27249;48.094;-1.690;2023-05-07T07:47:37;54.53;45.42;62.07;;
41518;Laerm;27249;48.094;-1.690;2023-05-07T07:50:03;56.06;46.02;66.04;;
41518;Laerm;27249;48.094;-1.690;2023-05-07T07:52:28;54.62;43.86;63.48;;
41518;Laerm;27249;48.094;-1.690;2023-05-07T07:54:53;56.31;45.20;64.84;;
41518;Laerm;27249;48.094;-1.690;2023-05-07T07:57:19;56.56;45.94;64.12;;
41518;Laerm;27249;48.094;-1.690;2023-05-07T07:59:44;55.41;48.61;63.41;;
41518;Laerm;27249;48.094;-1.690;2023-05-07T08:02:09;57.87;45.14;65.30;;
41518;Laerm;27249;48.094;-1.690;2023-05-07T08:04:35;55.55;46.73;64.62;;
41518;Laerm;27249;48.094;-1.690;2023-05-07T08:07:02;54.73;47.28;63.05;;
41518;Laerm;27249;48.094;-1.690;2023-05-07T08:09:27;53.09;43.86;63.05;;
41518;Laerm;27249;48.094;-1.690;2023-05-07T08:11:52;55.73;45.54;64.13;;
41518;Laerm;27249;48.094;-1.690;2023-05-07T08:14:17;63.35;44.43;71.84;;
41518;Laerm;27249;48.094;-1.690;2023-05-07T08:16:42;65.86;58.69;72.73;;
41518;Laerm;27249;48.094;-1.690;2023-05-07T08:19:08;65.72;56.21;73.09;;
41518;Laerm;27249;48.094;-1.690;2023-05-07T08:21:34;55.54;46.59;67.95;;
41518;Laerm;27249;48.094;-1.690;2023-05-07T08:23:59;55.02;47.12;60.84;;
41518;Laerm;27249;48.094;-1.690;2023-05-07T08:26:24;54.90;46.45;61.70;;
41518;Laerm;27249;48.094;-1.690;2023-05-07T08:28:49;56.53;46.69;63.22;;
41518;Laerm;27249;48.094;-1.690;2023-05-07T08:31:14;55.98;47.10;62.15;;
41518;Laerm;27249;48.094;-1.690;2023-05-07T08:33:40;55.36;48.07;64.15;;
41518;Laerm;27249;48.094;-1.690;2023-05-07T08:36:07;56.99;47.02;64.82;;
41518;Laerm;27249;48.094;-1.690;2023-05-07T08:38:32;56.40;46.33;63.20;;
41518;Laerm;27249;48.094;-1.690;2023-05-07T08:40:57;56.58;45.69;63.93;;
41518;Laerm;27249;48.094;-1.690;2023-05-07T08:43:22;56.85;46.50;64.93;;
41518;Laerm;27249;48.094;-1.690;2023-05-07T08:45:51;54.59;43.86;62.71;;
41518;Laerm;27249;48.094;-1.690;2023-05-07T08:48:17;56.23;46.43;63.13;;
41518;Laerm;27249;48.094;-1.690;2023-05-07T08:50:43;57.26;50.26;64.49;;
41518;Laerm;27249;48.094;-1.690;2023-05-07T08:53:08;56.14;47.46;63.41;;
41518;Laerm;27249;48.094;-1.690;2023-05-07T08:55:33;53.24;43.94;67.77;;
41518;Laerm;27249;48.094;-1.690;2023-05-07T08:57:59;55.18;46.52;63.10;;
41518;Laerm;27249;48.094;-1.690;2023-05-07T09:00:24;55.98;49.66;62.45;;
41518;Laerm;27249;48.094;-1.690;2023-05-07T09:02:50;55.14;45.69;61.27;;
41518;Laerm;27249;48.094;-1.690;2023-05-07T09:05:15;54.06;44.27;61.71;;
41518;Laerm;27249;48.094;-1.690;2023-05-07T09:07:40;55.98;48.76;68.76;;
41518;Laerm;27249;48.094;-1.690;2023-05-07T09:10:06;55.66;48.45;64.90;;
41518;Laerm;27249;48.094;-1.690;2023-05-07T09:12:31;54.20;45.36;63.72;;
41518;Laerm;27249;48.094;-1.690;2023-05-07T09:14:57;54.22;47.34;62.68;;
41518;Laerm;27249;48.094;-1.690;2023-05-07T09:17:22;55.48;48.70;64.30;;
41518;Laerm;27249;48.094;-1.690;2023-05-07T09:19:47;55.53;47.63;61.98;;
41518;Laerm;27249;48.094;-1.690;2023-05-07T09:22:13;54.32;45.04;61.07;;
41518;Laerm;27249;48.094;-1.690;2023-05-07T09:24:38;57.97;45.48;74.71;;
41518;Laerm;27249;48.094;-1.690;2023-05-07T09:27:04;55.85;47.63;72.52;;
41518;Laerm;27249;48.094;-1.690;2023-05-07T09:29:30;56.94;49.62;70.83;;
41518;Laerm;27249;48.094;-1.690;2023-05-07T09:32:00;53.79;45.66;61.44;;
41518;Laerm;27249;48.094;-1.690;2023-05-07T09:34:25;55.11;45.27;60.82;;
41518;Laerm;27249;48.094;-1.690;2023-05-07T09:36:50;54.04;45.86;62.03;;
41518;Laerm;27249;48.094;-1.690;2023-05-07T09:39:16;54.69;47.60;62.37;;
41518;Laerm;27249;48.094;-1.690;2023-05-07T09:41:44;54.01;44.07;63.00;;
41518;Laerm;27249;48.094;-1.690;2023-05-07T09:44:10;54.95;46.23;64.67;;
41518;Laerm;27249;48.094;-1.690;2023-05-07T09:46:36;54.36;46.73;61.80;;
41518;Laerm;27249;48.094;-1.690;2023-05-07T09:49:01;55.83;46.25;62.66;;
41518;Laerm;27249;48.094;-1.690;2023-05-07T09:51:30;54.86;46.20;61.73;;
41518;Laerm;27249;48.094;-1.690;2023-05-07T09:53:59;55.39;44.43;65.34;;
41518;Laerm;27249;48.094;-1.690;2023-05-07T09:56:27;53.29;44.83;60.16;;
41518;Laerm;27249;48.094;-1.690;2023-05-07T09:58:54;55.55;48.63;63.02;;
41518;Laerm;27249;48.094;-1.690;2023-05-07T10:01:21;55.45;46.33;61.22;;
41518;Laerm;27249;48.094;-1.690;2023-05-07T10:03:47;57.49;49.53;72.03;;
41518;Laerm;27249;48.094;-1.690;2023-05-07T10:06:13;55.76;48.07;64.79;;
41518;Laerm;27249;48.094;-1.690;2023-05-07T10:08:39;54.67;47.83;61.25;;
41518;Laerm;27249;48.094;-1.690;2023-05-07T10:11:05;54.74;47.18;60.38;;
41518;Laerm;27249;48.094;-1.690;2023-05-07T10:13:31;55.66;46.66;65.08;;
41518;Laerm;27249;48.094;-1.690;2023-05-07T10:15:56;55.18;44.69;66.49;;
41518;Laerm;27249;48.094;-1.690;2023-05-07T10:18:22;64.13;44.58;80.65;;
41518;Laerm;27249;48.094;-1.690;2023-05-07T10:20:48;55.05;46.89;60.98;;
41518;Laerm;27249;48.094;-1.690;2023-05-07T10:23:17;55.84;49.03;62.44;;
41518;Laerm;27249;48.094;-1.690;2023-05-07T10:25:44;54.30;46.28;60.57;;
41518;Laerm;27249;48.094;-1.690;2023-05-07T10:28:10;55.08;45.45;62.95;;
41518;Laerm;27249;48.094;-1.690;2023-05-07T10:30:44;54.59;44.43;61.89;;
41518;Laerm;27249;48.094;-1.690;2023-05-07T10:33:12;54.32;44.43;62.00;;
41518;Laerm;27249;48.094;-1.690;2023-05-07T10:35:39;54.95;45.42;61.03;;
41518;Laerm;27249;48.094;-1.690;2023-05-07T10:38:05;57.23;46.78;67.73;;
41518;Laerm;27249;48.094;-1.690;2023-05-07T10:40:31;56.85;46.52;67.18;;
41518;Laerm;27249;48.094;-1.690;2023-05-07T10:42:57;55.13;44.69;62.99;;
41518;Laerm;27249;48.094;-1.690;2023-05-07T10:45:24;53.91;42.41;61.84;;
41518;Laerm;27249;48.094;-1.690;2023-05-07T10:48:05;55.84;48.34;62.47;;
41518;Laerm;27249;48.094;-1.690;2023-05-07T10:50:31;56.05;48.84;62.50;;
41518;Laerm;27249;48.094;-1.690;2023-05-07T10:58:39;53.72;45.57;61.23;;
41518;Laerm;27249;48.094;-1.690;2023-05-07T11:01:04;61.85;45.36;86.95;;
41518;Laerm;27249;48.094;-1.690;2023-05-07T11:03:31;58.11;47.84;69.73;;
41518;Laerm;27249;48.094;-1.690;2023-05-07T11:09:16;55.30;46.13;62.96;;
41518;Laerm;27249;48.094;-1.690;2023-05-07T11:14:07;53.15;44.94;61.22;;
41518;Laerm;27249;48.094;-1.690;2023-05-07T11:16:32;52.88;43.99;73.96;;
41518;Laerm;27249;48.094;-1.690;2023-05-07T11:19:00;53.46;43.63;67.01;;
41518;Laerm;27249;48.094;-1.690;2023-05-07T11:21:35;54.46;44.97;62.24;;
41518;Laerm;27249;48.094;-1.690;2023-05-07T11:24:01;51.82;43.09;64.36;;
41518;Laerm;27249;48.094;-1.690;2023-05-07T11:26:28;55.75;44.19;66.24;;
41518;Laerm;27249;48.094;-1.690;2023-05-07T11:28:53;53.96;43.04;63.56;;
41518;Laerm;27249;48.094;-1.690;2023-05-07T11:31:20;52.58;44.79;63.11;;
41518;Laerm;27249;48.094;-1.690;2023-05-07T11:33:46;54.78;43.24;68.44;;
41518;Laerm;27249;48.094;-1.690;2023-05-07T11:36:11;53.98;43.49;64.79;;
41518;Laerm;27249;48.094;-1.690;2023-05-07T11:38:37;54.60;43.54;64.99;;
41518;Laerm;27249;48.094;-1.690;2023-05-07T11:41:03;54.06;44.54;60.28;;
41518;Laerm;27249;48.094;-1.690;2023-05-07T11:43:30;54.06;45.51;65.73;;
41518;Laerm;27249;48.094;-1.690;2023-05-07T11:46:04;55.86;44.52;67.61;;
41518;Laerm;27249;48.094;-1.690;2023-05-07T11:48:29;54.01;43.94;65.11;;
41518;Laerm;27249;48.094;-1.690;2023-05-07T11:53:26;55.80;44.58;69.65;;
41518;Laerm;27249;48.094;-1.690;2023-05-07T11:55:52;54.23;44.58;77.48;;
41518;Laerm;27249;48.094;-1.690;2023-05-07T11:58:20;57.48;47.12;72.70;;
41518;Laerm;27249;48.094;-1.690;2023-05-07T12:00:53;53.06;43.72;61.18;;
41518;Laerm;27249;48.094;-1.690;2023-05-07T12:03:18;51.90;43.81;61.33;;
41518;Laerm;27249;48.094;-1.690;2023-05-07T12:05:47;52.48;43.19;62.74;;
41518;Laerm;27249;48.094;-1.690;2023-05-07T12:08:16;55.88;46.97;65.42;;
41518;Laerm;27249;48.094;-1.690;2023-05-07T12:10:41;52.95;44.95;60.95;;
41518;Laerm;27249;48.094;-1.690;2023-05-07T12:13:20;54.78;44.35;64.54;;
41518;Laerm;27249;48.094;-1.690;2023-05-07T12:15:45;55.25;45.91;63.49;;
41518;Laerm;27249;48.094;-1.690;2023-05-07T12:18:11;53.84;46.10;62.31;;
41518;Laerm;27249;48.094;-1.690;2023-05-07T12:20:36;56.62;46.03;69.01;;
41518;Laerm;27249;48.094;-1.690;2023-05-07T12:23:03;53.04;43.90;60.77;;
41518;Laerm;27249;48.094;-1.690;2023-05-07T12:25:32;53.65;46.23;62.24;;
41518;Laerm;27249;48.094;-1.690;2023-05-07T12:27:59;55.01;44.83;65.71;;
41518;Laerm;27249;48.094;-1.690;2023-05-07T12:30:25;55.30;44.35;71.58;;
41518;Laerm;27249;48.094;-1.690;2023-05-07T12:32:53;54.27;45.45;61.88;;
41518;Laerm;27249;48.094;-1.690;2023-05-07T12:35:29;52.83;43.90;60.07;;
41518;Laerm;27249;48.094;-1.690;2023-05-07T12:37:55;55.19;46.38;64.49;;
41518;Laerm;27249;48.094;-1.690;2023-05-07T12:40:20;55.39;45.80;62.13;;
41518;Laerm;27249;48.094;-1.690;2023-05-07T12:42:46;53.53;47.12;60.39;;
41518;Laerm;27249;48.094;-1.690;2023-05-07T12:45:11;56.30;49.89;64.11;;
41518;Laerm;27249;48.094;-1.690;2023-05-07T12:47:37;55.24;45.39;63.05;;
41518;Laerm;27249;48.094;-1.690;2023-05-07T12:50:04;52.25;44.62;61.64;;
41518;Laerm;27249;48.094;-1.690;2023-05-07T12:52:30;55.62;47.65;63.55;;
41518;Laerm;27249;48.094;-1.690;2023-05-07T12:54:56;54.32;45.17;60.27;;
41518;Laerm;27249;48.094;-1.690;2023-05-07T12:57:21;53.14;43.72;59.82;;
41518;Laerm;27249;48.094;-1.690;2023-05-07T12:59:46;54.96;43.99;62.80;;
41518;Laerm;27249;48.094;-1.690;2023-05-07T13:02:12;55.82;45.11;64.29;;
41518;Laerm;27249;48.094;-1.690;2023-05-07T13:04:37;54.49;44.69;66.40;;
41518;Laerm;27249;48.094;-1.690;2023-05-07T13:07:02;53.70;46.05;61.51;;
41518;Laerm;27249;48.094;-1.690;2023-05-07T13:09:27;53.71;44.45;72.84;;
41518;Laerm;27249;48.094;-1.690;2023-05-07T13:11:54;53.30;45.66;60.49;;
41518;Laerm;27249;48.094;-1.690;2023-05-07T13:14:19;56.56;43.90;65.41;;
41518;Laerm;27249;48.094;-1.690;2023-05-07T13:16:45;53.15;43.63;60.60;;
41518;Laerm;27249;48.094;-1.690;2023-05-07T13:19:12;53.75;46.05;72.67;;
41518;Laerm;27249;48.094;-1.690;2023-05-07T13:21:37;55.63;46.71;73.25;;
41518;Laerm;27249;48.094;-1.690;2023-05-07T13:24:02;57.33;45.86;69.97;;
41518;Laerm;27249;48.094;-1.690;2023-05-07T13:26:27;55.20;44.65;70.30;;
41518;Laerm;27249;48.094;-1.690;2023-05-07T13:28:53;55.41;45.60;63.71;;
41518;Laerm;27249;48.094;-1.690;2023-05-07T13:31:18;55.70;44.43;63.62;;
41518;Laerm;27249;48.094;-1.690;2023-05-07T13:33:45;54.53;43.68;65.09;;
41518;Laerm;27249;48.094;-1.690;2023-05-07T13:36:10;54.38;45.42;60.31;;
41518;Laerm;27249;48.094;-1.690;2023-05-07T13:38:36;54.65;44.47;64.37;;